Time;durP1;ratioP1;P1;durP2;ratioP2;P2;SDS_P1;SDS_P2;PMS_P1;PMS_P2;Temp;Humidity;BMP_temperature;BMP_pressure;BME280_temperature;BME280_humidity;BME280_pressure;Samples;Min_cycle;Max_cycle;Signal;HPM_P1;HPM_P2
2022/12/08 00:01:33;;;;;;;5.35;1.48;;;;;;;;;;5056490;28;20040;-78
2022/12/08 00:04:00;;;;;;;12.20;1.80;;;;;;;;;;5038706;28;20591;-78
2022/12/08 00:09:22;;;;;;;7.00;1.90;;;;;;;;;;5038904;28;20484;-78
2022/12/08 00:11:50;;;;;;;6.85;1.50;;;;;;;;;;5026194;28;20044;-78
2022/12/08 00:14:16;;;;;;;7.75;1.40;;;;;;;;;;5040211;28;20073;-78
2022/12/08 00:16:42;;;;;;;8.32;1.80;;;;;;;;;;5042114;28;20072;-78
2022/12/08 00:19:08;;;;;;;7.03;1.50;;;;;;;;;;5040777;28;20051;-78
2022/12/08 00:21:34;;;;;;;7.45;1.45;;;;;;;;;;5056189;28;20048;-78
2022/12/08 00:24:00;;;;;;;7.78;1.20;;;;;;;;;;5055588;28;22220;-78
2022/12/08 00:26:27;;;;;;;7.53;1.42;;;;;;;;;;5040488;28;20099;-77
2022/12/08 00:28:53;;;;;;;3.33;1.15;;;;;;;;;;5041921;28;20093;-78
2022/12/08 00:31:19;;;;;;;7.07;1.50;;;;;;;;;;5041932;28;20404;-78
2022/12/08 00:33:45;;;;;;;7.60;1.20;;;;;;;;;;5041232;28;20051;-78
2022/12/08 00:36:13;;;;;;;7.82;1.45;;;;;;;;;;5041427;28;20083;-78
2022/12/08 00:38:39;;;;;;;5.07;1.20;;;;;;;;;;5054290;28;20051;-78
2022/12/08 00:41:12;;;;;;;8.10;1.38;;;;;;;;;;5028429;28;20090;-78
2022/12/08 00:43:38;;;;;;;8.80;1.30;;;;;;;;;;5035761;28;20051;-77
2022/12/08 00:46:04;;;;;;;6.60;1.42;;;;;;;;;;5052588;28;20053;-78
2022/12/08 00:48:30;;;;;;;3.63;1.00;;;;;;;;;;5038367;28;22017;-78
2022/12/08 00:50:56;;;;;;;7.53;0.70;;;;;;;;;;5041385;28;20044;-78
2022/12/08 00:53:22;;;;;;;1.25;0.57;;;;;;;;;;5054155;28;20059;-78
2022/12/08 00:55:48;;;;;;;3.85;0.80;;;;;;;;;;5043047;28;20047;-78
2022/12/08 00:58:14;;;;;;;1.10;0.60;;;;;;;;;;5054844;28;20075;-78
2022/12/08 01:00:41;;;;;;;8.73;3.33;;;;;;;;;;5047617;28;20056;-78
2022/12/08 01:03:10;;;;;;;8.77;0.70;;;;;;;;;;5057505;28;20048;-78
2022/12/08 01:05:37;;;;;;;3.58;0.80;;;;;;;;;;5053379;28;20571;-79
2022/12/08 01:08:07;;;;;;;3.17;0.90;;;;;;;;;;5060560;28;20127;-79
2022/12/08 01:10:36;;;;;;;5.88;0.98;;;;;;;;;;5056360;28;20527;-78
2022/12/08 01:13:02;;;;;;;3.05;0.70;;;;;;;;;;5053593;28;20048;-78
2022/12/08 01:15:28;;;;;;;3.13;0.63;;;;;;;;;;5042045;28;20052;-77
2022/12/08 01:17:55;;;;;;;2.38;0.47;;;;;;;;;;5038813;28;20516;-77
2022/12/08 01:20:21;;;;;;;1.90;0.50;;;;;;;;;;5043512;28;20112;-77
2022/12/08 01:22:47;;;;;;;2.88;0.55;;;;;;;;;;5057198;28;20595;-77
2022/12/08 01:25:13;;;;;;;0.85;0.30;;;;;;;;;;5023840;28;22185;-77
2022/12/08 01:27:39;;;;;;;2.85;0.40;;;;;;;;;;5020375;28;20052;-76
2022/12/08 01:30:05;;;;;;;1.45;1.20;;;;;;;;;;5053810;28;20052;-77
2022/12/08 01:32:31;;;;;;;2.42;0.47;;;;;;;;;;5051863;28;20055;-77
2022/12/08 01:34:57;;;;;;;4.68;0.60;;;;;;;;;;5039855;28;20043;-77
2022/12/08 01:37:23;;;;;;;3.97;0.70;;;;;;;;;;5026252;28;20163;-76
2022/12/08 01:39:49;;;;;;;1.73;0.43;;;;;;;;;;5030244;28;20091;-76
2022/12/08 01:42:23;;;;;;;3.85;0.90;;;;;;;;;;5040295;28;20054;-77
2022/12/08 01:44:52;;;;;;;3.30;0.40;;;;;;;;;;5041663;28;20089;-76
2022/12/08 01:47:18;;;;;;;6.43;0.70;;;;;;;;;;5041352;28;20048;-76
2022/12/08 01:49:44;;;;;;;5.80;0.50;;;;;;;;;;5070396;28;20047;-76
2022/12/08 01:52:25;;;;;;;3.08;0.40;;;;;;;;;;5065403;28;20067;-75
2022/12/08 01:55:02;;;;;;;0.25;0.25;;;;;;;;;;5058607;28;20059;-75
2022/12/08 01:57:34;;;;;;;4.72;0.43;;;;;;;;;;5047933;28;20049;-75
2022/12/08 02:00:01;;;;;;;3.58;0.40;;;;;;;;;;5069507;28;20346;-76
2022/12/08 02:02:32;;;;;;;2.08;0.68;;;;;;;;;;5078137;28;20086;-76
2022/12/08 02:04:59;;;;;;;2.55;0.30;;;;;;;;;;5054468;28;20101;-76
2022/12/08 02:07:25;;;;;;;3.85;0.52;;;;;;;;;;5045446;28;20591;-76
2022/12/08 02:09:52;;;;;;;3.25;0.52;;;;;;;;;;5042108;28;20122;-76
2022/12/08 02:12:18;;;;;;;1.40;0.45;;;;;;;;;;5042256;28;20048;-77
2022/12/08 02:14:44;;;;;;;1.15;0.50;;;;;;;;;;5041491;28;20524;-77
2022/12/08 02:17:13;;;;;;;4.70;0.70;;;;;;;;;;5056179;28;20087;-77
2022/12/08 02:19:58;;;;;;;2.40;0.38;;;;;;;;;;5053215;28;20718;-77
2022/12/08 02:22:33;;;;;;;3.13;0.50;;;;;;;;;;5032883;28;20051;-77
2022/12/08 02:24:59;;;;;;;2.53;0.45;;;;;;;;;;5049676;28;20048;-78
2022/12/08 02:27:55;;;;;;;0.40;0.40;;;;;;;;;;5043361;28;20181;-78
2022/12/08 02:30:22;;;;;;;1.20;0.50;;;;;;;;;;5030466;28;20041;-78
2022/12/08 02:32:55;;;;;;;4.13;0.50;;;;;;;;;;5031457;28;20074;-78
2022/12/08 02:35:21;;;;;;;3.20;0.50;;;;;;;;;;5042046;28;20052;-78
2022/12/08 02:37:49;;;;;;;2.15;0.40;;;;;;;;;;5057571;28;20040;-78
2022/12/08 02:40:19;;;;;;;2.85;0.55;;;;;;;;;;5039935;28;21483;-78
2022/12/08 02:42:55;;;;;;;3.72;0.55;;;;;;;;;;5040940;28;20051;-78
2022/12/08 02:45:42;;;;;;;3.22;1.38;;;;;;;;;;5039559;28;21932;-78
2022/12/08 02:48:08;;;;;;;3.00;0.50;;;;;;;;;;5023353;28;20059;-79
2022/12/08 02:50:34;;;;;;;5.03;0.57;;;;;;;;;;5052605;28;20053;-78
2022/12/08 02:53:01;;;;;;;4.05;0.40;;;;;;;;;;5039800;28;20192;-78
2022/12/08 02:55:31;;;;;;;4.32;0.65;;;;;;;;;;5040924;28;20102;-78
2022/12/08 02:58:16;;;;;;;3.85;0.40;;;;;;;;;;5040046;28;20060;-78
2022/12/08 03:01:15;;;;;;;1.17;0.50;;;;;;;;;;5034343;28;20063;-78
2022/12/08 03:03:59;;;;;;;0.68;0.30;;;;;;;;;;5030158;28;20052;-77
2022/12/08 03:06:29;;;;;;;2.47;0.50;;;;;;;;;;5053414;28;20044;-77
2022/12/08 03:08:58;;;;;;;2.92;0.32;;;;;;;;;;5055822;28;20490;-76
2022/12/08 03:11:28;;;;;;;0.77;0.35;;;;;;;;;;5026449;28;20060;-76
2022/12/08 03:13:56;;;;;;;7.63;0.50;;;;;;;;;;5062509;28;21751;-76
2022/12/08 03:16:24;;;;;;;2.03;0.40;;;;;;;;;;5045453;28;20055;-77
2022/12/08 03:19:11;;;;;;;2.75;0.40;;;;;;;;;;5041777;28;20158;-77
2022/12/08 03:21:39;;;;;;;4.28;0.50;;;;;;;;;;5043118;28;20055;-77
2022/12/08 03:24:06;;;;;;;3.05;0.40;;;;;;;;;;5041364;28;20056;-78
2022/12/08 03:26:53;;;;;;;4.65;0.80;;;;;;;;;;5041274;28;20052;-77
2022/12/08 03:29:20;;;;;;;3.50;0.52;;;;;;;;;;5053225;28;20076;-77
2022/12/08 03:31:50;;;;;;;0.30;0.30;;;;;;;;;;5058047;28;20049;-77
2022/12/08 03:34:16;;;;;;;0.63;0.35;;;;;;;;;;5052314;28;20044;-77
2022/12/08 03:36:43;;;;;;;3.08;0.40;;;;;;;;;;5039102;28;20056;-77
2022/12/08 03:39:10;;;;;;;4.63;0.55;;;;;;;;;;5051591;28;20098;-77
2022/12/08 03:41:36;;;;;;;1.02;0.50;;;;;;;;;;5053191;28;20137;-76
2022/12/08 03:44:02;;;;;;;2.38;0.60;;;;;;;;;;5039899;28;20048;-77
2022/12/08 03:46:29;;;;;;;2.00;0.47;;;;;;;;;;5036186;28;20047;-77
2022/12/08 03:48:56;;;;;;;1.75;0.40;;;;;;;;;;5006277;28;20675;-77
2022/12/08 03:51:22;;;;;;;3.47;0.40;;;;;;;;;;5039343;28;20040;-77
2022/12/08 03:53:48;;;;;;;1.40;0.60;;;;;;;;;;5038828;28;20047;-77
2022/12/08 03:56:19;;;;;;;1.02;0.50;;;;;;;;;;5038504;28;20155;-78
2022/12/08 03:58:45;;;;;;;2.53;0.38;;;;;;;;;;5042159;28;20140;-77
2022/12/08 04:01:11;;;;;;;7.78;0.60;;;;;;;;;;5030944;28;20080;-78
2022/12/08 04:03:38;;;;;;;0.82;0.40;;;;;;;;;;5039736;28;20044;-77
2022/12/08 04:06:04;;;;;;;0.70;0.47;;;;;;;;;;5053928;28;20170;-78
2022/12/08 04:08:30;;;;;;;0.73;0.50;;;;;;;;;;5053268;28;20052;-78
2022/12/08 04:10:56;;;;;;;1.35;0.40;;;;;;;;;;5024778;28;20059;-78
2022/12/08 04:13:22;;;;;;;2.20;0.63;;;;;;;;;;5023974;28;20052;-78
2022/12/08 04:15:48;;;;;;;3.10;0.70;;;;;;;;;;5037368;28;20158;-73
2022/12/08 04:18:15;;;;;;;2.85;0.57;;;;;;;;;;5054218;28;20051;-73
2022/12/08 04:20:42;;;;;;;3.80;0.43;;;;;;;;;;5038248;28;20044;-73
2022/12/08 04:23:08;;;;;;;3.22;0.60;;;;;;;;;;5053817;28;20407;-72
2022/12/08 04:25:35;;;;;;;1.38;0.57;;;;;;;;;;5039127;28;20071;-72
2022/12/08 04:28:01;;;;;;;1.10;0.52;;;;;;;;;;5039063;28;20052;-73
2022/12/08 04:30:27;;;;;;;2.53;0.50;;;;;;;;;;5036537;28;20101;-72
2022/12/08 04:32:53;;;;;;;5.85;0.85;;;;;;;;;;5037592;28;20055;-79
2022/12/08 04:35:19;;;;;;;0.65;0.40;;;;;;;;;;5043331;28;20063;-78
2022/12/08 04:37:45;;;;;;;2.10;0.60;;;;;;;;;;5044337;28;20059;-78
2022/12/08 04:40:11;;;;;;;2.33;0.50;;;;;;;;;;5055017;28;21428;-79
2022/12/08 04:42:38;;;;;;;4.97;0.70;;;;;;;;;;5037077;28;20048;-78
2022/12/08 04:45:04;;;;;;;2.70;0.63;;;;;;;;;;5044856;28;20056;-78
2022/12/08 04:47:30;;;;;;;1.50;0.30;;;;;;;;;;5039681;28;20048;-78
2022/12/08 04:49:56;;;;;;;2.38;0.65;;;;;;;;;;5037337;28;20055;-78
2022/12/08 04:52:23;;;;;;;3.88;0.70;;;;;;;;;;5041766;28;20051;-78
2022/12/08 04:54:49;;;;;;;3.97;0.60;;;;;;;;;;5053693;28;21118;-78
2022/12/08 04:57:15;;;;;;;1.50;0.50;;;;;;;;;;5041165;28;20495;-78
2022/12/08 04:59:44;;;;;;;1.92;0.50;;;;;;;;;;5057533;28;20078;-79
2022/12/08 05:02:10;;;;;;;5.57;1.98;;;;;;;;;;5051845;28;20090;-79
2022/12/08 05:04:36;;;;;;;3.53;0.77;;;;;;;;;;5039243;28;20052;-79
2022/12/08 05:07:02;;;;;;;2.95;0.50;;;;;;;;;;5038484;28;20052;-79
2022/12/08 05:09:28;;;;;;;2.97;0.52;;;;;;;;;;5053663;28;20049;-79
2022/12/08 05:11:54;;;;;;;1.88;0.50;;;;;;;;;;5041155;28;20159;-79
2022/12/08 05:14:21;;;;;;;3.80;0.75;;;;;;;;;;5041007;28;20078;-79
2022/12/08 05:16:47;;;;;;;3.33;0.52;;;;;;;;;;5055032;28;22044;-79
2022/12/08 05:19:13;;;;;;;3.20;0.45;;;;;;;;;;5052412;28;21129;-79
2022/12/08 05:21:39;;;;;;;4.38;1.30;;;;;;;;;;5043021;28;20064;-79
2022/12/08 05:24:05;;;;;;;2.83;0.55;;;;;;;;;;5043091;28;20086;-76
2022/12/08 05:26:32;;;;;;;4.03;0.40;;;;;;;;;;5053056;28;20064;-76
2022/12/08 05:28:58;;;;;;;1.75;0.70;;;;;;;;;;5044127;28;20048;-76
2022/12/08 05:31:24;;;;;;;1.65;0.68;;;;;;;;;;5057433;28;20877;-77
2022/12/08 05:33:50;;;;;;;3.25;0.82;;;;;;;;;;5043685;28;20044;-77
2022/12/08 05:36:17;;;;;;;1.20;0.50;;;;;;;;;;5043639;28;20408;-77
2022/12/08 05:38:43;;;;;;;2.47;0.57;;;;;;;;;;5043995;28;20063;-77
2022/12/08 05:41:12;;;;;;;4.10;0.50;;;;;;;;;;5039575;28;20048;-77
2022/12/08 05:43:38;;;;;;;2.63;0.70;;;;;;;;;;5033982;28;20055;-77
2022/12/08 05:46:04;;;;;;;4.13;0.50;;;;;;;;;;5029097;28;20059;-77
2022/12/08 05:48:30;;;;;;;4.75;0.80;;;;;;;;;;5027345;28;20044;-77
2022/12/08 05:50:56;;;;;;;6.15;1.50;;;;;;;;;;5042281;28;20625;-78
2022/12/08 05:53:23;;;;;;;8.55;1.70;;;;;;;;;;5056831;28;20069;-77
2022/12/08 05:55:49;;;;;;;4.50;1.42;;;;;;;;;;5032730;28;20857;-76
2022/12/08 05:58:16;;;;;;;2.88;0.90;;;;;;;;;;5048397;28;20051;-77
2022/12/08 06:00:43;;;;;;;3.67;0.80;;;;;;;;;;5047917;28;20057;-76
2022/12/08 06:03:12;;;;;;;1.90;0.65;;;;;;;;;;5046683;28;20051;-77
2022/12/08 06:05:40;;;;;;;3.35;0.63;;;;;;;;;;5048033;28;20063;-77
2022/12/08 06:08:06;;;;;;;5.28;0.80;;;;;;;;;;5042823;28;20062;-77
2022/12/08 06:10:32;;;;;;;5.72;0.57;;;;;;;;;;5040788;28;20052;-72
2022/12/08 06:12:59;;;;;;;3.95;0.50;;;;;;;;;;5016592;28;20044;-72
2022/12/08 06:15:25;;;;;;;1.48;0.80;;;;;;;;;;5020181;28;20058;-72
2022/12/08 06:17:51;;;;;;;1.98;0.70;;;;;;;;;;5033442;28;20936;-72
2022/12/08 06:20:17;;;;;;;1.48;0.40;;;;;;;;;;5041009;28;20061;-72
2022/12/08 06:22:43;;;;;;;0.55;0.50;;;;;;;;;;5030770;28;20086;-72
2022/12/08 06:25:09;;;;;;;2.28;0.70;;;;;;;;;;5031912;28;20060;-72
2022/12/08 06:27:35;;;;;;;1.35;0.68;;;;;;;;;;5059216;28;22042;-72
2022/12/08 06:30:01;;;;;;;4.18;0.63;;;;;;;;;;5045708;28;21235;-72
2022/12/08 06:32:27;;;;;;;5.43;2.67;;;;;;;;;;5031389;28;20040;-72
2022/12/08 06:34:53;;;;;;;2.78;1.20;;;;;;;;;;5059331;28;20111;-72
2022/12/08 06:37:19;;;;;;;4.35;1.40;;;;;;;;;;5044857;28;20428;-72
2022/12/08 06:39:45;;;;;;;5.40;1.83;;;;;;;;;;5059840;28;20491;-72
2022/12/08 06:44:56;;;;;;;4.82;2.33;;;;;;;;;;5058446;28;21030;-73
2022/12/08 06:47:22;;;;;;;6.85;1.42;;;;;;;;;;5038893;28;20138;-72
2022/12/08 06:49:48;;;;;;;1.80;1.65;;;;;;;;;;5054026;28;20051;-72
2022/12/08 06:52:15;;;;;;;4.07;1.10;;;;;;;;;;5066890;28;20040;-73
2022/12/08 06:54:41;;;;;;;4.13;1.00;;;;;;;;;;5046404;28;20398;-73
2022/12/08 06:57:07;;;;;;;7.82;1.15;;;;;;;;;;5071255;28;20043;-73
2022/12/08 06:59:33;;;;;;;3.63;0.75;;;;;;;;;;5069728;28;20135;-72
2022/12/08 07:01:59;;;;;;;3.67;0.90;;;;;;;;;;5043311;28;20048;-72
2022/12/08 07:04:25;;;;;;;3.83;0.73;;;;;;;;;;5042811;28;20113;-73
2022/12/08 07:06:51;;;;;;;7.22;0.82;;;;;;;;;;5051366;28;20423;-72
2022/12/08 07:09:17;;;;;;;4.97;0.80;;;;;;;;;;5042249;28;20076;-72
2022/12/08 07:11:43;;;;;;;3.80;0.90;;;;;;;;;;5043138;28;20510;-72
2022/12/08 07:14:09;;;;;;;9.27;1.30;;;;;;;;;;5042055;28;20048;-73
2022/12/08 07:16:35;;;;;;;8.52;2.10;;;;;;;;;;5057062;28;20629;-72
2022/12/08 07:19:01;;;;;;;3.25;1.55;;;;;;;;;;5029729;28;20062;-73
2022/12/08 07:21:27;;;;;;;6.32;1.52;;;;;;;;;;5048039;28;20040;-73
2022/12/08 07:23:54;;;;;;;2.97;1.30;;;;;;;;;;5043597;28;20036;-73
2022/12/08 07:26:20;;;;;;;9.40;1.90;;;;;;;;;;5043650;28;20060;-72
2022/12/08 07:28:46;;;;;;;5.15;1.35;;;;;;;;;;5033417;28;20053;-72
2022/12/08 07:31:19;;;;;;;4.05;1.30;;;;;;;;;;5058311;28;20055;-72
2022/12/08 07:33:45;;;;;;;7.63;1.50;;;;;;;;;;5058540;28;20051;-72
2022/12/08 07:36:12;;;;;;;7.47;1.83;;;;;;;;;;5055726;28;20056;-72
2022/12/08 07:38:38;;;;;;;4.43;2.10;;;;;;;;;;5058771;28;20139;-72
2022/12/08 07:41:04;;;;;;;10.50;2.20;;;;;;;;;;5059235;28;20049;-72
2022/12/08 07:43:30;;;;;;;4.53;2.40;;;;;;;;;;5031102;28;20051;-73
2022/12/08 07:45:56;;;;;;;6.47;2.63;;;;;;;;;;5056420;28;20092;-72
2022/12/08 07:48:22;;;;;;;6.80;2.85;;;;;;;;;;5043538;28;20557;-72
2022/12/08 07:50:48;;;;;;;8.35;3.00;;;;;;;;;;5015923;28;20091;-76
2022/12/08 07:53:14;;;;;;;6.47;2.80;;;;;;;;;;5035799;28;20047;-77
2022/12/08 07:55:42;;;;;;;7.07;3.00;;;;;;;;;;5054274;28;20152;-78
2022/12/08 07:58:08;;;;;;;10.98;2.33;;;;;;;;;;5054028;28;20058;-77
2022/12/08 08:00:34;;;;;;;4.35;2.20;;;;;;;;;;5035307;28;20059;-77
2022/12/08 08:03:01;;;;;;;8.93;2.80;;;;;;;;;;5021991;28;20051;-77
2022/12/08 08:05:27;;;;;;;7.95;2.80;;;;;;;;;;5034077;28;20072;-77
2022/12/08 08:07:53;;;;;;;6.82;2.80;;;;;;;;;;5033131;28;21201;-77
2022/12/08 08:10:19;;;;;;;7.75;2.58;;;;;;;;;;5053869;28;20052;-77
2022/12/08 08:12:46;;;;;;;7.43;3.13;;;;;;;;;;5023129;28;21641;-77
2022/12/08 08:15:12;;;;;;;5.65;2.72;;;;;;;;;;5022508;28;20066;-77
2022/12/08 08:17:38;;;;;;;5.72;2.95;;;;;;;;;;5041818;28;20087;-77
2022/12/08 08:20:05;;;;;;;10.13;3.22;;;;;;;;;;5038778;28;20171;-77
2022/12/08 08:22:32;;;;;;;6.55;3.17;;;;;;;;;;5039959;28;20080;-77
2022/12/08 08:24:58;;;;;;;8.70;3.83;;;;;;;;;;5040538;28;20080;-76
2022/12/08 08:27:25;;;;;;;7.95;3.70;;;;;;;;;;5038798;28;20055;-77
2022/12/08 08:29:51;;;;;;;6.45;3.58;;;;;;;;;;5043729;28;20044;-77
2022/12/08 08:32:18;;;;;;;7.97;4.43;;;;;;;;;;5054885;28;20057;-78
2022/12/08 08:34:44;;;;;;;7.97;4.60;;;;;;;;;;5051939;28;20274;-77
2022/12/08 08:37:10;;;;;;;12.23;4.38;;;;;;;;;;5041231;28;20060;-77
2022/12/08 08:39:36;;;;;;;11.00;4.38;;;;;;;;;;5040202;28;20098;-77
2022/12/08 08:42:02;;;;;;;7.60;4.85;;;;;;;;;;5024203;28;20063;-77
2022/12/08 08:44:28;;;;;;;11.25;5.68;;;;;;;;;;5021820;28;20052;-76
2022/12/08 08:46:54;;;;;;;13.70;6.15;;;;;;;;;;5059472;28;20063;-77
2022/12/08 08:49:20;;;;;;;7.75;4.80;;;;;;;;;;5046760;28;21065;-77
2022/12/08 08:51:46;;;;;;;9.02;4.70;;;;;;;;;;5044095;28;20136;-77
2022/12/08 08:54:12;;;;;;;12.63;6.07;;;;;;;;;;5046554;28;20084;-76
2022/12/08 08:56:38;;;;;;;13.40;6.40;;;;;;;;;;5058147;28;20685;-76
2022/12/08 08:59:04;;;;;;;14.23;5.40;;;;;;;;;;5058758;28;20101;-75
2022/12/08 09:01:31;;;;;;;10.23;5.10;;;;;;;;;;5060989;28;21088;-75
2022/12/08 09:03:57;;;;;;;17.38;6.10;;;;;;;;;;5046724;28;20105;-75
2022/12/08 09:06:23;;;;;;;9.05;4.45;;;;;;;;;;5045006;28;20044;-75
2022/12/08 09:08:50;;;;;;;11.65;5.40;;;;;;;;;;5046744;28;20052;-75
2022/12/08 09:11:17;;;;;;;9.30;5.38;;;;;;;;;;5031120;28;20153;-70
2022/12/08 09:13:43;;;;;;;14.25;7.05;;;;;;;;;;5062628;28;21972;-70
2022/12/08 09:16:10;;;;;;;6.93;4.82;;;;;;;;;;5043457;28;20055;-70
2022/12/08 09:18:36;;;;;;;13.73;6.30;;;;;;;;;;5061538;28;20040;-71
2022/12/08 09:21:07;;;;;;;13.32;6.22;;;;;;;;;;5058541;28;20070;-71
2022/12/08 09:23:33;;;;;;;11.55;4.47;;;;;;;;;;5044057;28;20126;-71
2022/12/08 09:25:59;;;;;;;7.50;3.90;;;;;;;;;;5044365;28;20051;-71
2022/12/08 09:28:26;;;;;;;6.78;3.35;;;;;;;;;;5058721;28;20098;-71
2022/12/08 09:30:52;;;;;;;5.40;3.35;;;;;;;;;;5059717;28;20040;-71
2022/12/08 09:33:18;;;;;;;6.63;3.50;;;;;;;;;;5045892;28;20036;-72
2022/12/08 09:35:44;;;;;;;12.80;3.72;;;;;;;;;;5058509;28;20052;-71
2022/12/08 09:38:10;;;;;;;6.13;3.60;;;;;;;;;;5036826;28;20063;-71
2022/12/08 09:40:39;;;;;;;11.45;3.10;;;;;;;;;;5042811;28;20508;-75
2022/12/08 09:43:14;;;;;;;3.95;2.70;;;;;;;;;;5045278;28;20481;-76
2022/12/08 09:45:41;;;;;;;5.65;2.42;;;;;;;;;;5046173;28;20045;-71
2022/12/08 09:48:17;;;;;;;6.00;1.90;;;;;;;;;;5046908;28;20107;-71
2022/12/08 09:50:43;;;;;;;9.00;1.55;;;;;;;;;;5042917;28;20071;-76
2022/12/08 09:53:11;;;;;;;3.22;1.40;;;;;;;;;;5053884;28;20043;-75
2022/12/08 09:55:42;;;;;;;4.50;0.77;;;;;;;;;;5048794;28;20083;-75
2022/12/08 09:58:28;;;;;;;5.45;0.93;;;;;;;;;;5060043;28;20817;-75
2022/12/08 10:00:55;;;;;;;3.55;0.60;;;;;;;;;;5007601;28;20090;-75
2022/12/08 10:03:23;;;;;;;6.13;1.70;;;;;;;;;;5044442;28;20504;-75
2022/12/08 10:05:55;;;;;;;3.85;0.60;;;;;;;;;;5046626;28;20492;-75
2022/12/08 10:08:28;;;;;;;7.93;1.10;;;;;;;;;;5064232;28;20083;-70
2022/12/08 10:10:57;;;;;;;9.00;1.35;;;;;;;;;;5045384;28;20056;-71
2022/12/08 10:13:29;;;;;;;6.45;2.05;;;;;;;;;;5062382;28;20055;-70
2022/12/08 10:16:25;;;;;;;4.43;1.10;;;;;;;;;;5055755;28;20389;-70
2022/12/08 10:19:00;;;;;;;6.20;1.40;;;;;;;;;;5039769;28;20055;-76
2022/12/08 10:21:28;;;;;;;5.97;2.40;;;;;;;;;;5054207;28;20052;-75
2022/12/08 10:23:58;;;;;;;4.07;1.90;;;;;;;;;;5056058;28;20143;-76
2022/12/08 10:26:24;;;;;;;3.05;0.90;;;;;;;;;;5048033;28;20044;-73
2022/12/08 10:28:50;;;;;;;5.75;1.40;;;;;;;;;;5048080;28;21781;-73
2022/12/08 10:31:20;;;;;;;2.40;0.82;;;;;;;;;;5047606;28;20071;-74
2022/12/08 10:33:47;;;;;;;3.80;0.85;;;;;;;;;;5045451;28;20047;-74
2022/12/08 10:36:13;;;;;;;4.15;0.90;;;;;;;;;;5046825;28;20045;-74
2022/12/08 10:38:40;;;;;;;5.95;1.67;;;;;;;;;;5048019;28;20511;-74
2022/12/08 10:41:06;;;;;;;3.35;1.13;;;;;;;;;;5046305;28;22046;-74
2022/12/08 10:43:33;;;;;;;2.00;0.90;;;;;;;;;;5062234;28;20074;-74
2022/12/08 10:46:19;;;;;;;22.63;4.75;;;;;;;;;;5046555;28;20067;-74
2022/12/08 10:48:54;;;;;;;3.45;1.13;;;;;;;;;;5047521;28;20044;-80
2022/12/08 10:51:27;;;;;;;12.27;2.97;;;;;;;;;;5043782;28;20048;-80
2022/12/08 10:53:53;;;;;;;4.05;0.95;;;;;;;;;;5045861;28;20062;-80
2022/12/08 10:56:24;;;;;;;3.85;1.10;;;;;;;;;;5048498;28;20475;-75
2022/12/08 10:59:04;;;;;;;5.55;1.10;;;;;;;;;;5056562;28;20063;-74
2022/12/08 11:01:34;;;;;;;4.80;1.00;;;;;;;;;;5059093;28;20209;-81
2022/12/08 11:04:04;;;;;;;3.42;0.90;;;;;;;;;;5042023;28;20052;-80
2022/12/08 11:06:30;;;;;;;6.22;1.90;;;;;;;;;;5057429;28;20082;-79
2022/12/08 11:08:57;;;;;;;7.78;1.30;;;;;;;;;;5044389;28;20087;-80
2022/12/08 11:11:37;;;;;;;2.97;1.05;;;;;;;;;;5057783;28;20037;-75
2022/12/08 11:14:07;;;;;;;3.00;0.90;;;;;;;;;;5033632;28;20048;-75
2022/12/08 11:16:33;;;;;;;4.80;1.13;;;;;;;;;;5058257;28;20052;-75
2022/12/08 11:19:05;;;;;;;3.22;0.90;;;;;;;;;;5044096;28;20096;-80
2022/12/08 11:21:37;;;;;;;2.45;0.93;;;;;;;;;;5044140;28;20179;-80
2022/12/08 11:24:10;;;;;;;1.80;1.08;;;;;;;;;;5045012;28;20052;-80
2022/12/08 11:26:36;;;;;;;1.70;0.73;;;;;;;;;;5042525;28;20056;-80
2022/12/08 11:29:03;;;;;;;2.25;1.00;;;;;;;;;;5038771;28;20052;-76
2022/12/08 11:31:40;;;;;;;3.92;0.88;;;;;;;;;;5042402;28;20078;-75
2022/12/08 11:34:09;;;;;;;5.38;0.98;;;;;;;;;;5034186;28;20091;-75
2022/12/08 11:36:35;;;;;;;6.68;0.80;;;;;;;;;;5051074;28;20502;-79
2022/12/08 11:39:03;;;;;;;2.08;0.73;;;;;;;;;;5054577;28;20048;-75
2022/12/08 11:41:33;;;;;;;3.33;1.00;;;;;;;;;;5068194;28;20785;-75
2022/12/08 11:44:14;;;;;;;2.28;0.77;;;;;;;;;;5053953;28;20500;-75
2022/12/08 11:46:44;;;;;;;2.80;0.68;;;;;;;;;;5050324;28;22021;-75
2022/12/08 11:49:11;;;;;;;1.83;0.82;;;;;;;;;;5053845;28;20057;-75
2022/12/08 11:51:42;;;;;;;1.73;0.90;;;;;;;;;;5056125;28;20044;-75
2022/12/08 11:54:23;;;;;;;1.67;0.60;;;;;;;;;;5069480;28;20100;-81
2022/12/08 11:56:52;;;;;;;4.88;1.17;;;;;;;;;;5041933;28;20110;-75
2022/12/08 11:59:21;;;;;;;3.63;0.70;;;;;;;;;;5047531;28;20603;-81
2022/12/08 12:01:47;;;;;;;3.53;0.63;;;;;;;;;;5035706;28;20079;-81
2022/12/08 12:04:18;;;;;;;5.43;0.80;;;;;;;;;;5025822;28;20055;-80
2022/12/08 12:07:02;;;;;;;2.15;0.70;;;;;;;;;;5064154;28;20156;-80
2022/12/08 12:09:49;;;;;;;3.67;0.95;;;;;;;;;;5038124;28;20052;-80
2022/12/08 12:12:34;;;;;;;4.25;0.70;;;;;;;;;;5006405;28;20503;-80
2022/12/08 12:15:15;;;;;;;3.15;1.00;;;;;;;;;;5059082;28;20044;-80
2022/12/08 12:17:44;;;;;;;3.85;0.80;;;;;;;;;;5059089;28;20147;-74
2022/12/08 12:20:29;;;;;;;1.55;0.82;;;;;;;;;;5046313;28;20063;-81
2022/12/08 12:22:57;;;;;;;2.95;0.70;;;;;;;;;;5066822;28;20669;-78
2022/12/08 12:25:24;;;;;;;2.25;0.68;;;;;;;;;;5060467;28;20050;-79
2022/12/08 12:27:51;;;;;;;3.72;0.65;;;;;;;;;;5053091;28;20066;-78
2022/12/08 12:30:19;;;;;;;3.33;0.90;;;;;;;;;;5050127;28;20050;-78
2022/12/08 12:32:57;;;;;;;3.35;1.17;;;;;;;;;;5044031;28;20632;-73
2022/12/08 12:35:27;;;;;;;6.70;2.20;;;;;;;;;;5058090;28;20516;-73
2022/12/08 12:37:55;;;;;;;3.90;1.02;;;;;;;;;;5056585;28;20110;-73
2022/12/08 12:40:23;;;;;;;4.57;0.98;;;;;;;;;;5059768;28;20048;-73
2022/12/08 12:42:55;;;;;;;5.18;0.70;;;;;;;;;;5043672;28;20097;-73
2022/12/08 12:45:24;;;;;;;0.70;0.40;;;;;;;;;;5043032;28;20052;-73
2022/12/08 12:47:52;;;;;;;2.10;0.50;;;;;;;;;;5053828;28;20062;-73
2022/12/08 12:50:33;;;;;;;2.53;0.60;;;;;;;;;;5028056;28;20048;-73
2022/12/08 12:53:05;;;;;;;1.45;0.52;;;;;;;;;;5041762;28;20052;-73
2022/12/08 12:55:52;;;;;;;3.03;0.80;;;;;;;;;;5058167;28;20531;-73
2022/12/08 12:58:33;;;;;;;2.83;0.80;;;;;;;;;;5042228;28;20058;-73
2022/12/08 13:01:11;;;;;;;2.47;0.50;;;;;;;;;;5042773;28;20492;-72
2022/12/08 13:03:40;;;;;;;2.80;0.50;;;;;;;;;;5043307;28;20131;-77
2022/12/08 13:06:06;;;;;;;1.65;0.60;;;;;;;;;;5049668;28;20062;-73
2022/12/08 13:08:32;;;;;;;1.17;0.50;;;;;;;;;;5043913;28;20135;-78
2022/12/08 13:11:01;;;;;;;4.07;0.90;;;;;;;;;;5043028;28;20119;-73
2022/12/08 13:13:28;;;;;;;2.05;1.33;;;;;;;;;;5044318;28;20047;-78
2022/12/08 13:15:55;;;;;;;2.53;1.30;;;;;;;;;;5044304;28;20142;-77
2022/12/08 13:18:24;;;;;;;3.45;0.77;;;;;;;;;;5029044;28;20063;-78
2022/12/08 13:20:52;;;;;;;5.40;1.00;;;;;;;;;;5039633;28;20054;-78
2022/12/08 13:23:27;;;;;;;6.22;1.25;;;;;;;;;;5043523;28;20047;-77
2022/12/08 13:26:08;;;;;;;6.03;0.80;;;;;;;;;;5027704;28;20075;-77
2022/12/08 13:28:54;;;;;;;1.60;1.10;;;;;;;;;;5037723;28;20460;-77
2022/12/08 13:31:39;;;;;;;2.50;0.77;;;;;;;;;;5030681;28;20079;-73
2022/12/08 13:34:18;;;;;;;3.38;1.02;;;;;;;;;;5047972;28;20044;-72
2022/12/08 13:37:02;;;;;;;6.53;1.45;;;;;;;;;;5061851;28;20048;-72
2022/12/08 13:39:34;;;;;;;2.08;1.58;;;;;;;;;;5060852;28;20123;-72
2022/12/08 13:42:05;;;;;;;4.90;2.78;;;;;;;;;;5054215;28;20072;-77
2022/12/08 13:44:51;;;;;;;3.85;1.15;;;;;;;;;;5059850;28;20226;-73
2022/12/08 13:47:27;;;;;;;3.75;1.27;;;;;;;;;;5032449;28;20072;-73
2022/12/08 13:50:02;;;;;;;1.65;1.20;;;;;;;;;;5046058;28;20091;-73
2022/12/08 13:52:32;;;;;;;8.85;3.95;;;;;;;;;;5044664;28;21972;-73
2022/12/08 13:54:59;;;;;;;4.90;1.83;;;;;;;;;;5028418;28;20393;-73
2022/12/08 13:57:27;;;;;;;4.45;2.25;;;;;;;;;;5043820;28;20629;-73
2022/12/08 13:59:53;;;;;;;4.60;2.85;;;;;;;;;;5065270;28;20079;-73
2022/12/08 14:02:28;;;;;;;5.60;2.65;;;;;;;;;;5062834;28;20182;-73
2022/12/08 14:04:55;;;;;;;3.88;1.77;;;;;;;;;;5047618;28;20163;-77
2022/12/08 14:07:22;;;;;;;3.85;1.80;;;;;;;;;;5048488;28;20055;-73
2022/12/08 14:09:48;;;;;;;3.97;2.80;;;;;;;;;;5062035;28;20055;-77
2022/12/08 14:12:25;;;;;;;4.03;2.10;;;;;;;;;;5059527;28;20052;-72
2022/12/08 14:15:02;;;;;;;2.58;1.58;;;;;;;;;;5043079;28;20051;-72
2022/12/08 14:17:28;;;;;;;3.67;1.40;;;;;;;;;;5042489;28;20048;-72
2022/12/08 14:19:55;;;;;;;2.83;1.27;;;;;;;;;;5043310;28;20130;-77
2022/12/08 14:22:21;;;;;;;2.25;1.20;;;;;;;;;;5041785;28;20075;-77
2022/12/08 14:24:52;;;;;;;1.05;0.85;;;;;;;;;;5065690;28;20052;-77
2022/12/08 14:27:19;;;;;;;0.90;0.75;;;;;;;;;;5045841;28;20071;-77
2022/12/08 14:29:51;;;;;;;0.90;0.80;;;;;;;;;;5047722;28;20047;-77
2022/12/08 14:32:31;;;;;;;1.95;1.10;;;;;;;;;;5046265;28;20114;-77
2022/12/08 14:34:57;;;;;;;2.28;0.70;;;;;;;;;;5044630;28;20059;-77
2022/12/08 14:37:25;;;;;;;4.47;1.05;;;;;;;;;;5057977;28;20388;-77
2022/12/08 14:39:52;;;;;;;1.50;1.20;;;;;;;;;;5044625;28;20276;-77
2022/12/08 14:42:22;;;;;;;3.25;2.95;;;;;;;;;;5057139;28;20079;-77
2022/12/08 14:44:54;;;;;;;2.30;2.10;;;;;;;;;;5055121;28;20071;-76
2022/12/08 14:47:20;;;;;;;3.30;1.73;;;;;;;;;;5063499;28;20060;-76
2022/12/08 14:49:47;;;;;;;2.25;1.15;;;;;;;;;;5049185;28;20060;-76
2022/12/08 14:52:13;;;;;;;2.83;1.20;;;;;;;;;;5023192;28;20055;-77
2022/12/08 14:54:41;;;;;;;4.15;2.00;;;;;;;;;;5043454;28;20055;-72
2022/12/08 14:57:09;;;;;;;1.08;0.77;;;;;;;;;;5043260;28;20091;-75
2022/12/08 14:59:37;;;;;;;0.88;0.82;;;;;;;;;;5045324;28;20064;-72